KLXN

Jim Kelly Field Airport

Lexington, Nebraska, USA
METAR KLXN 211955Z AUTO 02018G23KT 3SM -RA OVC008 01/00 A2969 RMK AO2 T00101005
Observed Flight Rules
Jan-21 @ 19:55 UTC (35 minutes ago) Instrument Flight Rules
Wind Visibility Clouds Conditions
20° at 18 knots
 Gusting to 23 knots
3 miles
  • Overcast at 800' AGL
  • Light Rain
Temperatures Readings
Current 1°C / 34°F
Dewpoint -1°C / 30°F
Humidity 87%
Altimeter 29.69" Hg
Pressure 1005 hPa
Elevation 734
METAR KLXN 211955Z AUTO 02018G23KT 3SM -RA OVC008 01/00 A2969 RMK AO2 T00101005
Observed Flight Rules
Jan-21 @ 19:55 UTC
(35 minutes ago)
IFR
Wind Visibility
20° at 18 knots
 Gusting to 23 knots
3 miles
Clouds
  • Overcast at 800' AGL
Conditions
  • Light Rain
Temperature Dewpoint
1°C / 34°F -1°C / 30°F
Humidity Altimeter Pressure
87% 29.69" Hg 1005 hPa